Time,TemperatureF,DewpointF,PressureIn,WindDirection,WindDirectionDegrees,WindSpeedMPH,WindSpeedGustMPH,Humidity,HourlyPrecipIn,Conditions,Clouds,dailyrainin,SoftwareType,DateUTC
2013-06-13 00:00:00,81.0,36.1,29.71,SSE,155,1.0,1.0,20,0.00,,,0.00,Wunderground v.1.15,2013-06-13 06:00:00,
2013-06-13 00:10:00,79.9,37.6,29.71,SSE,155,0.0,0.0,22,0.00,,,0.00,Wunderground v.1.15,2013-06-13 06:10:00,
2013-06-13 00:20:00,79.2,37.1,29.71,SSE,155,0.0,0.0,22,0.00,,,0.00,Wunderground v.1.15,2013-06-13 06:20:00,
2013-06-13 00:30:00,77.9,38.2,29.72,SSE,155,0.0,0.0,24,0.00,,,0.00,Wunderground v.1.15,2013-06-13 06:30:00,
2013-06-13 00:40:00,76.7,39.2,29.71,SSE,155,0.0,0.0,26,0.00,,,0.00,Wunderground v.1.15,2013-06-13 06:40:00,
2013-06-13 00:50:00,75.5,39.2,29.71,SSE,155,0.0,0.0,27,0.00,,,0.00,Wunderground v.1.15,2013-06-13 06:50:00,
2013-06-13 01:00:00,75.1,38.8,29.71,SSE,155,0.0,0.0,27,0.00,,,0.00,Wunderground v.1.15,2013-06-13 07:00:00,
2013-06-13 01:10:00,74.8,38.6,29.72,SSE,155,0.0,4.0,27,0.00,,,0.00,Wunderground v.1.15,2013-06-13 07:10:00,
2013-06-13 01:20:00,74.4,39.2,29.72,SSE,155,0.0,4.0,28,0.00,,,0.00,Wunderground v.1.15,2013-06-13 07:20:00,
2013-06-13 01:30:00,74.3,38.1,29.73,SSE,155,0.0,4.0,27,0.00,,,0.00,Wunderground v.1.15,2013-06-13 07:30:00,
2013-06-13 01:40:00,74.3,38.1,29.73,SSE,155,0.0,4.0,27,0.00,,,0.00,Wunderground v.1.15,2013-06-13 07:40:00,
2013-06-13 01:50:00,74.4,39.2,29.73,SSE,155,0.0,4.0,28,0.00,,,0.00,Wunderground v.1.15,2013-06-13 07:50:00,
2013-06-13 02:00:00,74.0,38.8,29.73,SSE,155,0.0,4.0,28,0.00,,,0.00,Wunderground v.1.15,2013-06-13 08:00:00,
2013-06-13 02:10:00,73.5,38.4,29.72,SSE,155,0.0,4.0,28,0.00,,,0.00,Wunderground v.1.15,2013-06-13 08:10:00,
2013-06-13 02:20:00,74.0,39.7,29.72,SSE,155,1.0,1.0,29,0.00,,,0.00,Wunderground v.1.15,2013-06-13 08:20:00,
2013-06-13 02:30:00,73.1,38.9,29.72,SSE,155,0.0,4.0,29,0.00,,,0.00,Wunderground v.1.15,2013-06-13 08:30:00,
2013-06-13 02:40:00,72.7,39.5,29.72,SSE,155,0.0,4.0,30,0.00,,,0.00,Wunderground v.1.15,2013-06-13 08:40:00,
2013-06-13 02:50:00,72.5,39.3,29.72,SSE,155,0.0,4.0,30,0.00,,,0.00,Wunderground v.1.15,2013-06-13 08:50:00,
2013-06-13 03:00:00,72.5,38.4,29.72,SSE,155,2.0,2.0,29,0.00,,,0.00,Wunderground v.1.15,2013-06-13 09:00:00,
2013-06-13 03:10:00,71.6,33.9,29.72,SSE,155,1.0,1.0,25,0.00,,,0.00,Wunderground v.1.15,2013-06-13 09:10:00,
2013-06-13 03:20:00,71.2,30.4,29.73,SSE,155,0.0,4.0,22,0.00,,,0.00,Wunderground v.1.15,2013-06-13 09:20:00,
2013-06-13 03:30:00,71.0,30.2,29.73,SSE,155,0.0,4.0,22,0.00,,,0.00,Wunderground v.1.15,2013-06-13 09:30:00,
2013-06-13 03:40:00,70.8,32.2,29.73,SSE,155,0.0,4.0,24,0.00,,,0.00,Wunderground v.1.15,2013-06-13 09:40:00,
2013-06-13 03:50:00,69.9,33.4,29.73,SSE,155,0.0,4.0,26,0.00,,,0.00,Wunderground v.1.15,2013-06-13 09:50:00,
2013-06-13 04:00:00,69.3,33.9,29.73,SSE,155,0.0,4.0,27,0.00,,,0.00,Wunderground v.1.15,2013-06-13 10:00:00,
2013-06-13 04:10:00,68.8,35.2,29.73,SSE,155,0.0,4.0,29,0.00,,,0.00,Wunderground v.1.15,2013-06-13 10:10:00,
2013-06-13 04:20:00,69.0,35.4,29.73,SSE,155,1.0,1.0,29,0.00,,,0.00,Wunderground v.1.15,2013-06-13 10:20:00,
2013-06-13 04:30:00,70.1,34.5,29.73,SSE,155,1.0,1.0,27,0.00,,,0.00,Wunderground v.1.15,2013-06-13 10:30:00,
2013-06-13 04:40:00,69.9,37.9,29.73,SSE,155,0.0,4.0,31,0.00,,,0.00,Wunderground v.1.15,2013-06-13 10:40:00,
2013-06-13 04:50:00,69.1,37.2,29.73,SSE,155,0.0,4.0,31,0.00,,,0.00,Wunderground v.1.15,2013-06-13 10:50:00,
2013-06-13 05:00:00,68.6,36.7,29.73,SSE,155,0.0,4.0,31,0.00,,,0.00,Wunderground v.1.15,2013-06-13 11:00:00,
2013-06-13 05:10:00,69.4,34.9,29.74,SSE,155,1.0,4.0,28,0.00,,,0.00,Wunderground v.1.15,2013-06-13 11:10:00,
2013-06-13 05:20:00,69.4,33.9,29.74,SSE,155,0.0,4.0,27,0.00,,,0.00,Wunderground v.1.15,2013-06-13 11:20:00,
2013-06-13 05:30:00,68.6,34.2,29.74,SSE,155,0.0,4.0,28,0.00,,,0.00,Wunderground v.1.15,2013-06-13 11:30:00,
2013-06-13 05:40:00,68.5,35.0,29.74,SSE,155,0.0,4.0,29,0.00,,,0.00,Wunderground v.1.15,2013-06-13 11:40:00,
2013-06-13 05:50:00,68.1,34.6,29.75,SSE,155,0.0,4.0,29,0.00,,,0.00,Wunderground v.1.15,2013-06-13 11:50:00,
2013-06-13 06:00:00,67.6,35.9,29.75,SSE,154,0.0,4.0,31,0.00,,,0.00,Wunderground v.1.15,2013-06-13 12:00:00,
2013-06-13 06:10:00,67.2,36.3,29.75,SSE,154,0.0,4.0,32,0.00,,,0.00,Wunderground v.1.15,2013-06-13 12:10:00,
2013-06-13 06:20:00,67.2,36.3,29.75,SSE,155,0.0,4.0,32,0.00,,,0.00,Wunderground v.1.15,2013-06-13 12:20:00,
2013-06-13 06:30:00,67.2,37.1,29.75,SSE,154,0.0,4.0,33,0.00,,,0.00,Wunderground v.1.15,2013-06-13 12:30:00,
2013-06-13 06:40:00,67.8,36.0,29.75,SSE,155,0.0,4.0,31,0.00,,,0.00,Wunderground v.1.15,2013-06-13 12:40:00,
2013-06-13 06:50:00,68.4,36.6,29.75,SSE,155,0.0,4.0,31,0.00,,,0.00,Wunderground v.1.15,2013-06-13 12:50:00,
2013-06-13 07:00:00,69.0,37.9,29.76,SSE,155,0.0,4.0,32,0.00,,,0.00,Wunderground v.1.15,2013-06-13 13:00:00,
2013-06-13 07:10:00,69.6,38.4,29.75,SSE,155,2.0,4.0,32,0.00,,,0.00,Wunderground v.1.15,2013-06-13 13:10:00,
2013-06-13 07:20:00,70.4,39.1,29.76,SSE,159,1.0,4.0,32,0.00,,,0.00,Wunderground v.1.15,2013-06-13 13:20:00,
2013-06-13 07:30:00,71.1,39.7,29.76,SSE,159,1.0,4.0,32,0.00,,,0.00,Wunderground v.1.15,2013-06-13 13:30:00,
2013-06-13 07:40:00,71.8,39.5,29.76,SSE,159,0.0,4.0,31,0.00,,,0.00,Wunderground v.1.15,2013-06-13 13:40:00,
2013-06-13 07:50:00,72.2,39.0,29.77,SSE,159,0.0,4.0,30,0.00,,,0.00,Wunderground v.1.15,2013-06-13 13:50:00,
2013-06-13 08:00:00,73.3,39.1,29.77,SSE,159,0.0,4.0,29,0.00,,,0.00,Wunderground v.1.15,2013-06-13 14:00:00,
2013-06-13 08:10:00,74.5,39.2,29.77,SSE,160,0.0,4.0,28,0.00,,,0.00,Wunderground v.1.15,2013-06-13 14:10:00,
2013-06-13 08:20:00,76.1,38.7,29.78,SSE,159,0.0,4.0,26,0.00,,,0.00,Wunderground v.1.15,2013-06-13 14:20:00,
2013-06-13 08:30:00,77.0,39.5,29.78,SSE,159,1.0,1.0,26,0.00,,,0.00,Wunderground v.1.15,2013-06-13 14:30:00,
2013-06-13 08:40:00,77.8,41.1,29.78,SSE,159,1.0,4.0,27,0.00,,,0.00,Wunderground v.1.15,2013-06-13 14:40:00,
2013-06-13 08:50:00,78.1,42.3,29.78,South,173,1.0,4.0,28,0.00,,,0.00,Wunderground v.1.15,2013-06-13 14:50:00,
2013-06-13 09:00:00,79.4,42.5,29.78,South,173,1.0,1.0,27,0.00,,,0.00,Wunderground v.1.15,2013-06-13 15:00:00,
2013-06-13 09:10:00,80.7,42.6,29.77,South,173,0.0,4.0,26,0.00,,,0.00,Wunderground v.1.15,2013-06-13 15:10:00,
2013-06-13 09:20:00,81.6,43.4,29.77,South,173,1.0,1.0,26,0.00,,,0.00,Wunderground v.1.15,2013-06-13 15:20:00,
2013-06-13 09:30:00,82.9,43.5,29.77,South,173,0.0,4.0,25,0.00,,,0.00,Wunderground v.1.15,2013-06-13 15:30:00,
2013-06-13 09:40:00,83.9,43.2,29.77,South,173,1.0,1.0,24,0.00,,,0.00,Wunderground v.1.15,2013-06-13 15:40:00,
2013-06-13 09:50:00,84.7,42.8,29.77,South,173,1.0,1.0,23,0.00,,,0.00,Wunderground v.1.15,2013-06-13 15:50:00,
2013-06-13 10:00:00,85.5,42.3,29.77,South,173,0.0,4.0,22,0.00,,,0.00,Wunderground v.1.15,2013-06-13 16:00:00,
2013-06-13 10:10:00,85.3,42.1,29.77,South,173,1.0,4.0,22,0.00,,,0.00,Wunderground v.1.15,2013-06-13 16:10:00,
2013-06-13 10:20:00,85.8,42.6,29.76,South,173,0.0,4.0,22,0.00,,,0.00,Wunderground v.1.15,2013-06-13 16:20:00,
2013-06-13 10:30:00,85.6,41.2,29.76,SSE,155,2.0,4.0,21,0.00,,,0.00,Wunderground v.1.15,2013-06-13 16:30:00,
2013-06-13 10:40:00,85.8,41.3,29.76,SSW,195,3.0,6.0,21,0.00,,,0.00,Wunderground v.1.15,2013-06-13 16:40:00,
2013-06-13 10:50:00,86.6,40.7,29.76,SSE,168,4.0,4.0,20,0.00,,,0.00,Wunderground v.1.15,2013-06-13 16:50:00,
2013-06-13 11:00:00,86.5,41.9,29.75,SSE,158,2.0,4.0,21,0.00,,,0.00,Wunderground v.1.15,2013-06-13 17:00:00,
2013-06-13 11:10:00,86.5,41.9,29.75,SW,221,4.0,5.0,21,0.00,,,0.00,Wunderground v.1.15,2013-06-13 17:10:00,
2013-06-13 11:20:00,87.2,42.5,29.75,SSW,207,5.0,6.0,21,0.00,,,0.00,Wunderground v.1.15,2013-06-13 17:20:00,
2013-06-13 11:30:00,87.9,41.8,29.75,South,188,4.0,4.0,20,0.00,,,0.00,Wunderground v.1.15,2013-06-13 17:30:00,
2013-06-13 11:40:00,88.2,42.1,29.74,South,189,4.0,4.0,20,0.00,,,0.00,Wunderground v.1.15,2013-06-13 17:40:00,
2013-06-13 11:50:00,88.3,43.4,29.74,SSE,157,5.0,5.0,21,0.00,,,0.00,Wunderground v.1.15,2013-06-13 17:50:00,
2013-06-13 12:00:00,89.3,43.0,29.74,South,178,4.0,5.0,20,0.00,,,0.00,Wunderground v.1.15,2013-06-13 18:00:00,
2013-06-13 12:10:00,90.2,43.7,29.73,SW,234,3.0,8.0,20,0.00,,,0.00,Wunderground v.1.15,2013-06-13 18:10:00,
2013-06-13 12:20:00,91.2,43.2,29.73,SSW,209,4.0,4.0,19,0.00,,,0.00,Wunderground v.1.15,2013-06-13 18:20:00,
2013-06-13 12:30:00,91.6,43.5,29.72,South,189,3.0,11.0,19,0.00,,,0.00,Wunderground v.1.15,2013-06-13 18:30:00,
2013-06-13 12:40:00,92.2,42.6,29.71,SW,227,5.0,6.0,18,0.00,,,0.00,Wunderground v.1.15,2013-06-13 18:40:00,
2013-06-13 12:50:00,92.6,42.9,29.71,SSW,196,4.0,4.0,18,0.00,,,0.00,Wunderground v.1.15,2013-06-13 18:50:00,
2013-06-13 13:00:00,93.3,42.0,29.70,SSE,162,3.0,3.0,17,0.00,,,0.00,Wunderground v.1.15,2013-06-13 19:00:00,
2013-06-13 13:10:00,94.1,42.6,29.70,South,186,3.0,6.0,17,0.00,,,0.00,Wunderground v.1.15,2013-06-13 19:10:00,
2013-06-13 13:20:00,94.9,41.7,29.69,SW,226,3.0,4.0,16,0.00,,,0.00,Wunderground v.1.15,2013-06-13 19:20:00,
2013-06-13 13:30:00,95.2,40.3,29.68,SW,218,6.0,6.0,15,0.00,,,0.00,Wunderground v.1.15,2013-06-13 19:30:00,
2013-06-13 13:40:00,94.8,39.9,29.67,South,187,5.0,5.0,15,0.00,,,0.00,Wunderground v.1.15,2013-06-13 19:40:00,
2013-06-13 13:50:00,96.4,39.4,29.66,SSE,167,3.0,5.0,14,0.00,,,0.00,Wunderground v.1.15,2013-06-13 19:50:00,
2013-06-13 14:00:00,96.3,39.4,29.66,SSW,211,5.0,5.0,14,0.00,,,0.00,Wunderground v.1.15,2013-06-13 20:00:00,
2013-06-13 14:10:00,96.0,39.1,29.65,South,180,8.0,8.0,14,0.00,,,0.00,Wunderground v.1.15,2013-06-13 20:10:00,
2013-06-13 14:20:00,96.8,35.8,29.65,SW,233,6.0,10.0,12,0.00,,,0.00,Wunderground v.1.15,2013-06-13 20:20:00,
2013-06-13 14:30:00,97.2,36.1,29.64,SSW,207,8.0,12.0,12,0.00,,,0.00,Wunderground v.1.15,2013-06-13 20:30:00,
2013-06-13 14:40:00,96.6,35.7,29.64,SE,137,7.0,7.0,12,0.00,,,0.00,Wunderground v.1.15,2013-06-13 20:40:00,
2013-06-13 14:50:00,95.9,35.1,29.63,SSW,209,5.0,10.0,12,0.00,,,0.00,Wunderground v.1.15,2013-06-13 20:50:00,
2013-06-13 15:00:00,96.0,30.7,29.63,ESE,107,5.0,15.0,10,0.00,,,0.00,Wunderground v.1.15,2013-06-13 21:00:00,
2013-06-13 15:10:00,95.6,32.7,29.63,SSE,150,8.0,8.0,11,0.00,,,0.00,Wunderground v.1.15,2013-06-13 21:10:00,
2013-06-13 15:20:00,95.2,36.6,29.63,SE,138,5.0,5.0,13,0.00,,,0.00,Wunderground v.1.15,2013-06-13 21:20:00,
2013-06-13 15:30:00,95.1,34.5,29.62,SE,126,4.0,5.0,12,0.00,,,0.00,Wunderground v.1.15,2013-06-13 21:30:00,
2013-06-13 15:40:00,95.9,32.9,29.61,East,88,2.0,2.0,11,0.00,,,0.00,Wunderground v.1.15,2013-06-13 21:40:00,
2013-06-13 15:50:00,96.5,33.4,29.61,SE,133,5.0,7.0,11,0.00,,,0.00,Wunderground v.1.15,2013-06-13 21:50:00,
2013-06-13 16:00:00,96.6,33.5,29.60,ESE,111,5.0,5.0,11,0.00,,,0.00,Wunderground v.1.15,2013-06-13 22:00:00,
2013-06-13 16:10:00,96.8,31.3,29.60,SSE,156,5.0,5.0,10,0.00,,,0.00,Wunderground v.1.15,2013-06-13 22:10:00,
2013-06-13 16:20:00,97.0,31.4,29.60,South,180,4.0,4.0,10,0.00,,,0.00,Wunderground v.1.15,2013-06-13 22:20:00,
2013-06-13 16:30:00,97.4,34.1,29.59,WSW,240,3.0,9.0,11,0.00,,,0.00,Wunderground v.1.15,2013-06-13 22:30:00,
2013-06-13 16:40:00,96.0,33.0,29.60,South,182,6.0,6.0,11,0.00,,,0.00,Wunderground v.1.15,2013-06-13 22:40:00,
2013-06-13 16:50:00,96.0,33.0,29.60,South,190,6.0,7.0,11,0.00,,,0.00,Wunderground v.1.15,2013-06-13 22:50:00,
2013-06-13 17:00:00,96.1,30.7,29.59,SSW,201,4.0,7.0,10,0.00,,,0.00,Wunderground v.1.15,2013-06-13 23:00:00,
2013-06-13 17:10:00,95.8,30.5,29.60,SW,225,6.0,6.0,10,0.00,,,0.00,Wunderground v.1.15,2013-06-13 23:10:00,
2013-06-13 17:20:00,95.1,30.0,29.60,WSW,245,6.0,6.0,10,0.00,,,0.00,Wunderground v.1.15,2013-06-13 23:20:00,
2013-06-13 17:30:00,94.3,33.9,29.62,East,88,5.0,5.0,12,0.00,,,0.00,Wunderground v.1.15,2013-06-13 23:30:00,
2013-06-13 17:40:00,93.5,35.3,29.62,ENE,61,2.0,8.0,13,0.00,,,0.00,Wunderground v.1.15,2013-06-13 23:40:00,
2013-06-13 17:50:00,91.1,37.0,29.63,East,101,6.0,6.0,15,0.00,,,0.00,Wunderground v.1.15,2013-06-13 23:50:00,
2013-06-13 18:00:00,89.2,38.7,29.63,ENE,76,7.0,7.0,17,0.00,,,0.00,Wunderground v.1.15,2013-06-14 00:00:00,
2013-06-13 18:10:00,87.0,45.8,29.61,ENE,61,8.0,8.0,24,0.00,,,0.00,Wunderground v.1.15,2013-06-14 00:10:00,
2013-06-13 18:20:00,87.4,40.1,29.61,ENE,61,5.0,5.0,19,0.00,,,0.01,Wunderground v.1.15,2013-06-14 00:20:00,
2013-06-13 18:30:00,87.2,38.5,29.62,ENE,72,9.0,10.0,18,0.00,,,0.01,Wunderground v.1.15,2013-06-14 00:30:00,
2013-06-13 18:40:00,87.6,37.4,29.62,NNE,32,8.0,9.0,17,0.00,,,0.01,Wunderground v.1.15,2013-06-14 00:40:00,
2013-06-13 18:50:00,88.3,36.4,29.62,NE,50,7.0,7.0,16,0.00,,,0.01,Wunderground v.1.15,2013-06-14 00:50:00,
2013-06-13 19:00:00,88.2,36.3,29.61,NNE,13,10.0,10.0,16,0.00,,,0.01,Wunderground v.1.15,2013-06-14 01:00:00,
2013-06-13 19:10:00,88.6,35.0,29.61,ENE,74,4.0,4.0,15,0.00,,,0.01,Wunderground v.1.15,2013-06-14 01:10:00,
2013-06-13 19:20:00,88.8,35.2,29.62,NE,53,3.0,9.0,15,0.00,,,0.01,Wunderground v.1.15,2013-06-14 01:20:00,
2013-06-13 19:30:00,88.4,36.5,29.62,NE,50,5.0,5.0,16,0.00,,,0.01,Wunderground v.1.15,2013-06-14 01:30:00,
2013-06-13 19:40:00,88.1,37.8,29.64,ENE,74,2.0,4.0,17,0.00,,,0.01,Wunderground v.1.15,2013-06-14 01:40:00,
2013-06-13 19:50:00,88.2,37.9,29.65,SE,145,4.0,6.0,17,0.00,,,0.01,Wunderground v.1.15,2013-06-14 01:50:00,
2013-06-13 20:00:00,87.0,50.0,29.67,SSE,166,11.0,21.0,28,1.13,,,0.03,Wunderground v.1.15,2013-06-14 02:00:00,
2013-06-13 20:10:00,79.4,48.6,29.70,SSE,150,10.0,10.0,34,0.14,,,0.07,Wunderground v.1.15,2013-06-14 02:10:00,
2013-06-13 20:20:00,76.3,50.9,29.69,ENE,67,3.0,5.0,41,0.04,,,0.07,Wunderground v.1.15,2013-06-14 02:20:00,
2013-06-13 20:30:00,76.3,52.2,29.70,East,94,4.0,4.0,43,0.00,,,0.07,Wunderground v.1.15,2013-06-14 02:30:00,
2013-06-13 20:40:00,79.3,45.2,29.68,SE,124,7.0,7.0,30,0.00,,,0.07,Wunderground v.1.15,2013-06-14 02:40:00,
2013-06-13 20:50:00,79.9,44.8,29.68,ENE,74,6.0,6.0,29,0.00,,,0.07,Wunderground v.1.15,2013-06-14 02:50:00,
2013-06-13 21:00:00,81.4,42.2,29.69,ENE,70,6.0,6.0,25,0.00,,,0.07,Wunderground v.1.15,2013-06-14 03:00:00,
2013-06-13 21:10:00,79.7,46.4,29.68,NE,55,6.0,10.0,31,0.00,,,0.07,Wunderground v.1.15,2013-06-14 03:10:00,
2013-06-13 21:20:00,80.3,40.2,29.67,NE,43,6.0,11.0,24,0.00,,,0.07,Wunderground v.1.15,2013-06-14 03:20:00,
2013-06-13 21:30:00,79.8,43.8,29.67,NE,54,8.0,8.0,28,0.00,,,0.07,Wunderground v.1.15,2013-06-14 03:30:00,
2013-06-13 21:40:00,80.9,41.8,29.68,NNE,28,6.0,8.0,25,0.00,,,0.07,Wunderground v.1.15,2013-06-14 03:40:00,
2013-06-13 21:50:00,82.0,39.4,29.69,ENE,57,3.0,3.0,22,0.00,,,0.07,Wunderground v.1.15,2013-06-14 03:50:00,
2013-06-13 22:00:00,82.7,40.0,29.69,South,191,3.0,3.0,22,0.00,,,0.07,Wunderground v.1.15,2013-06-14 04:00:00,
2013-06-13 22:10:00,82.4,42.0,29.70,SE,140,2.0,4.0,24,0.00,,,0.07,Wunderground v.1.15,2013-06-14 04:10:00,
2013-06-13 22:20:00,81.5,42.3,29.70,ESE,111,3.0,3.0,25,0.00,,,0.07,Wunderground v.1.15,2013-06-14 04:20:00,
2013-06-13 22:30:00,80.8,42.7,29.70,ESE,111,1.0,1.0,26,0.00,,,0.07,Wunderground v.1.15,2013-06-14 04:30:00,
2013-06-13 22:40:00,80.6,42.5,29.70,ESE,111,0.0,4.0,26,0.00,,,0.07,Wunderground v.1.15,2013-06-14 04:40:00,
2013-06-13 22:50:00,80.8,42.7,29.71,ESE,123,3.0,7.0,26,0.00,,,0.07,Wunderground v.1.15,2013-06-14 04:50:00,
2013-06-13 23:00:00,81.2,45.0,29.71,East,86,4.0,4.0,28,0.00,,,0.07,Wunderground v.1.15,2013-06-14 05:00:00,
2013-06-13 23:10:00,81.4,45.2,29.71,East,89,4.0,5.0,28,0.00,,,0.07,Wunderground v.1.15,2013-06-14 05:10:00,
2013-06-13 23:20:00,81.1,45.8,29.71,ESE,106,3.0,11.0,29,0.00,,,0.07,Wunderground v.1.15,2013-06-14 05:20:00,
2013-06-13 23:30:00,81.0,46.6,29.72,ENE,59,4.0,5.0,30,0.00,,,0.07,Wunderground v.1.15,2013-06-14 05:30:00,
2013-06-13 23:40:00,81.0,44.8,29.73,NNE,21,4.0,4.0,28,0.00,,,0.07,Wunderground v.1.15,2013-06-14 05:40:00,
2013-06-13 23:50:00,80.7,43.6,29.73,NNE,21,0.0,4.0,27,0.00,,,0.07,Wunderground v.1.15,2013-06-14 05:50:00,